createdAt,value
2023-03-06T00:02:10.102Z,5.93
2023-03-06T00:04:37.871Z,6.93
2023-03-06T00:07:05.725Z,7.20
2023-03-06T00:09:33.625Z,5.03
2023-03-06T00:12:01.407Z,9.50
2023-03-06T00:14:30.552Z,5.05
2023-03-06T00:16:58.443Z,7.82
2023-03-06T00:19:26.303Z,4.53
2023-03-06T00:21:54.642Z,5.13
2023-03-06T00:24:22.554Z,5.18
2023-03-06T00:26:50.912Z,11.07
2023-03-06T00:29:19.216Z,6.75
2023-03-06T00:31:48.417Z,8.18
2023-03-06T00:34:16.421Z,8.52
2023-03-06T00:36:44.248Z,7.20
2023-03-06T00:39:11.958Z,12.05
2023-03-06T00:41:39.782Z,8.90
2023-03-06T00:44:07.549Z,11.65
2023-03-06T00:46:35.336Z,12.57
2023-03-06T00:49:04.745Z,16.85
2023-03-06T00:51:32.511Z,11.35
2023-03-06T00:54:00.216Z,15.23
2023-03-06T00:56:27.991Z,9.77
2023-03-06T00:58:55.707Z,12.98
2023-03-06T01:01:26.427Z,15.65
2023-03-06T01:03:54.189Z,14.10
2023-03-06T01:06:23.468Z,14.50
2023-03-06T01:08:51.207Z,12.05
2023-03-06T01:11:19.219Z,14.35
2023-03-06T01:13:47.247Z,14.20
2023-03-06T01:16:18.641Z,14.38
2023-03-06T01:18:50.022Z,15.98
2023-03-06T01:21:17.808Z,17.25
2023-03-06T01:23:47.416Z,19.08
2023-03-06T01:26:15.389Z,20.65
2023-03-06T01:28:43.113Z,19.55
2023-03-06T01:31:11.485Z,17.98
2023-03-06T01:33:39.595Z,18.17
2023-03-06T01:36:09.904Z,17.20
2023-03-06T01:38:37.794Z,20.50
2023-03-06T01:41:07.555Z,25.88
2023-03-06T01:43:37.825Z,23.13
2023-03-06T01:46:29.446Z,27.83
2023-03-06T01:49:00.274Z,22.00
2023-03-06T01:51:32.977Z,20.80
2023-03-06T01:54:03.211Z,19.27
2023-03-06T01:56:32.514Z,24.48
2023-03-06T01:59:00.798Z,26.55
2023-03-06T02:01:28.781Z,19.77
2023-03-06T02:03:57.145Z,22.23
2023-03-06T02:06:24.912Z,21.40
2023-03-06T02:08:55.238Z,21.05
2023-03-06T02:11:24.913Z,22.13
2023-03-06T02:13:55.689Z,19.80
2023-03-06T02:16:27.604Z,19.13
2023-03-06T02:18:55.872Z,22.25
2023-03-06T02:21:26.994Z,20.38
2023-03-06T02:24:17.829Z,23.42
2023-03-06T02:26:48.725Z,20.15
2023-03-06T02:29:23.055Z,22.30
2023-03-06T02:31:51.347Z,22.95
2023-03-06T02:34:50.801Z,20.92
2023-03-06T02:37:19.080Z,24.98
2023-03-06T02:39:53.093Z,23.30
2023-03-06T02:42:24.922Z,22.83
2023-03-06T02:44:56.146Z,21.75
2023-03-06T02:47:24.407Z,28.02
2023-03-06T02:49:52.273Z,23.90
2023-03-06T02:52:20.089Z,28.10
2023-03-06T02:54:47.839Z,23.38
2023-03-06T02:57:16.079Z,23.45
2023-03-06T02:59:45.343Z,21.20
2023-03-06T03:02:13.225Z,21.33
2023-03-06T03:04:41.125Z,22.67
2023-03-06T03:07:09.713Z,22.63
2023-03-06T03:09:37.658Z,18.00
2023-03-06T03:12:08.095Z,18.40
2023-03-06T03:14:36.381Z,20.20
2023-03-06T03:17:06.061Z,23.48
2023-03-06T03:19:33.894Z,21.20
2023-03-06T03:22:01.790Z,18.27
2023-03-06T03:24:29.689Z,19.40
2023-03-06T03:26:57.428Z,21.38
2023-03-06T03:29:26.239Z,26.98
2023-03-06T03:31:54.854Z,19.80
2023-03-06T03:34:27.562Z,17.33
2023-03-06T03:36:55.731Z,18.60
2023-03-06T03:39:24.051Z,21.70
2023-03-06T03:41:52.086Z,20.58
2023-03-06T03:44:20.674Z,19.23
2023-03-06T03:46:49.686Z,24.92
2023-03-06T03:49:21.608Z,21.27
2023-03-06T03:51:50.929Z,19.80
2023-03-06T03:54:19.624Z,21.50
2023-03-06T03:56:49.650Z,19.70
2023-03-06T03:59:24.063Z,21.10
2023-03-06T04:02:05.562Z,25.02
2023-03-06T04:04:39.253Z,22.38
2023-03-06T04:07:09.282Z,20.05
2023-03-06T04:09:37.981Z,20.30
2023-03-06T04:12:06.166Z,17.50
2023-03-06T04:14:35.874Z,20.05
2023-03-06T04:17:04.209Z,19.23
2023-03-06T04:19:31.996Z,20.38
2023-03-06T04:22:01.665Z,22.80
2023-03-06T04:24:32.942Z,22.08
2023-03-06T04:27:01.297Z,25.98
2023-03-06T04:29:29.031Z,23.00
2023-03-06T04:31:56.768Z,21.70
2023-03-06T04:34:24.688Z,20.35
2023-03-06T04:36:52.505Z,22.08
2023-03-06T04:39:20.284Z,25.23
2023-03-06T04:41:50.110Z,22.55
2023-03-06T04:44:18.163Z,22.42
2023-03-06T04:46:45.860Z,23.25
2023-03-06T04:49:13.595Z,25.40
2023-03-06T04:51:41.297Z,21.67
2023-03-06T04:54:09.103Z,21.33
2023-03-06T04:56:36.794Z,20.95
2023-03-06T04:59:06.130Z,20.23
2023-03-06T05:01:33.875Z,17.05
2023-03-06T05:04:01.702Z,21.30
2023-03-06T05:06:29.507Z,17.15
2023-03-06T05:08:57.337Z,21.08
2023-03-06T05:11:25.153Z,23.00
2023-03-06T05:13:52.948Z,18.77
2023-03-06T05:16:22.151Z,20.92
2023-03-06T05:18:50.778Z,18.25
2023-03-06T05:21:18.625Z,21.17
2023-03-06T05:23:47.512Z,18.00
2023-03-06T05:26:16.274Z,17.67
2023-03-06T05:28:44.058Z,13.30
2023-03-06T05:31:11.795Z,20.13
2023-03-06T05:33:40.950Z,15.85
2023-03-06T05:36:09.116Z,15.32
2023-03-06T05:38:36.896Z,17.30
2023-03-06T05:41:04.805Z,15.98
2023-03-06T05:43:32.569Z,17.60
2023-03-06T05:46:04.241Z,15.18
2023-03-06T05:48:32.207Z,17.35
2023-03-06T05:51:03.005Z,19.13
2023-03-06T05:53:30.956Z,22.42
2023-03-06T05:55:59.740Z,20.10
2023-03-06T05:58:28.184Z,18.17
2023-03-06T06:00:55.914Z,16.70
2023-03-06T06:03:24.226Z,17.00
2023-03-06T06:05:52.326Z,20.30
2023-03-06T06:08:21.659Z,15.05
2023-03-06T06:10:52.167Z,17.60
2023-03-06T06:13:20.968Z,18.58
2023-03-06T06:15:48.822Z,19.15
2023-03-06T06:18:16.608Z,14.82
2023-03-06T06:20:44.468Z,19.08
2023-03-06T06:23:12.593Z,17.23
2023-03-06T06:25:41.855Z,17.95
2023-03-06T06:28:09.710Z,20.38
2023-03-06T06:30:37.437Z,22.95
2023-03-06T06:33:05.183Z,26.60
2023-03-06T06:35:36.805Z,21.95
2023-03-06T06:38:04.617Z,16.33
2023-03-06T06:40:32.455Z,20.10
2023-03-06T06:43:01.589Z,22.58
2023-03-06T06:45:29.886Z,22.92
2023-03-06T06:47:57.807Z,23.70
2023-03-06T06:50:25.553Z,19.13
2023-03-06T06:52:53.378Z,20.83
2023-03-06T06:55:22.098Z,19.17
2023-03-06T06:57:49.858Z,21.63
2023-03-06T07:00:20.327Z,20.13
2023-03-06T07:02:49.197Z,19.58
2023-03-06T07:05:17.226Z,17.20
2023-03-06T07:07:44.917Z,16.77
2023-03-06T07:10:15.981Z,14.50
2023-03-06T07:12:44.123Z,18.58
2023-03-06T07:15:14.210Z,17.85
2023-03-06T07:17:43.354Z,18.23
2023-03-06T07:20:12.894Z,15.23
2023-03-06T07:22:50.398Z,15.55
2023-03-06T07:25:19.661Z,17.83
2023-03-06T07:27:53.378Z,17.75
2023-03-06T07:30:23.075Z,14.95
2023-03-06T07:32:55.258Z,16.33
2023-03-06T07:35:24.056Z,17.30
2023-03-06T07:37:52.143Z,13.05
2023-03-06T07:40:21.092Z,18.33
2023-03-06T07:42:49.145Z,14.30
2023-03-06T07:45:20.724Z,16.75
2023-03-06T07:47:50.512Z,16.65
2023-03-06T07:50:20.346Z,17.27
2023-03-06T07:52:48.351Z,15.07
2023-03-06T07:55:16.812Z,16.63
2023-03-06T07:57:44.590Z,13.45
2023-03-06T08:00:15.623Z,17.20
2023-03-06T08:02:44.386Z,14.23
2023-03-06T08:05:14.547Z,13.70
2023-03-06T08:07:43.740Z,13.80
2023-03-06T08:10:14.987Z,12.13
2023-03-06T08:12:42.756Z,12.68
2023-03-06T08:15:12.106Z,12.70
2023-03-06T08:17:39.862Z,15.73
2023-03-06T08:20:10.259Z,13.82
2023-03-06T08:22:38.436Z,13.73
2023-03-06T08:25:08.771Z,14.18
2023-03-06T08:27:37.421Z,13.05
2023-03-06T08:30:05.881Z,13.68
2023-03-06T08:32:36.196Z,12.55
2023-03-06T08:35:04.764Z,15.15
2023-03-06T08:37:32.500Z,15.48
2023-03-06T08:40:00.238Z,15.05
2023-03-06T08:42:29.297Z,12.98
2023-03-06T08:44:56.998Z,15.32
2023-03-06T08:47:24.733Z,12.70
2023-03-06T08:49:52.493Z,13.30
2023-03-06T08:52:20.249Z,10.13
2023-03-06T08:54:48.317Z,10.82
2023-03-06T08:57:16.022Z,12.27
2023-03-06T08:59:45.113Z,12.77
2023-03-06T09:02:15.194Z,13.05
2023-03-06T09:04:42.985Z,11.48
2023-03-06T09:07:10.729Z,12.10
2023-03-06T09:09:38.477Z,13.27
2023-03-06T09:12:06.675Z,10.68
2023-03-06T09:14:34.402Z,11.23
2023-03-06T09:17:03.503Z,13.23
2023-03-06T09:19:31.225Z,13.02
2023-03-06T09:22:00.930Z,10.50
2023-03-06T09:24:28.981Z,8.95
2023-03-06T09:26:56.695Z,12.25
2023-03-06T09:29:24.539Z,11.98
2023-03-06T09:31:52.373Z,10.32
2023-03-06T09:34:21.627Z,13.00
2023-03-06T09:36:56.911Z,10.30
2023-03-06T09:39:27.130Z,10.47
2023-03-06T09:41:55.176Z,9.23
2023-03-06T09:44:27.573Z,12.50
2023-03-06T09:47:19.058Z,9.95
2023-03-06T09:50:04.882Z,11.13
2023-03-06T09:52:37.476Z,8.50
2023-03-06T09:55:12.662Z,10.15
2023-03-06T09:57:46.215Z,12.02
2023-03-06T10:00:16.842Z,9.50
2023-03-06T10:02:49.619Z,10.20
2023-03-06T10:05:22.708Z,10.43
2023-03-06T10:07:53.942Z,10.93
2023-03-06T10:10:23.924Z,8.45
2023-03-06T10:13:00.151Z,9.10
2023-03-06T10:15:33.207Z,8.27
2023-03-06T10:18:02.684Z,8.15
2023-03-06T10:20:38.162Z,8.98
2023-03-06T10:23:30.099Z,7.53
2023-03-06T10:26:02.009Z,9.60
2023-03-06T10:28:33.760Z,9.73
2023-03-06T10:31:10.524Z,9.98
2023-03-06T10:33:52.222Z,8.50
2023-03-06T10:36:22.986Z,7.88
2023-03-06T10:38:50.774Z,8.88
2023-03-06T10:41:24.976Z,9.68
2023-03-06T10:44:23.857Z,7.50
2023-03-06T10:46:54.266Z,8.07
2023-03-06T10:49:31.741Z,7.82
2023-03-06T10:52:04.210Z,8.50
2023-03-06T10:54:34.474Z,6.22
2023-03-06T10:57:20.891Z,6.15
2023-03-06T10:59:54.059Z,6.70
2023-03-06T11:02:30.457Z,6.10
2023-03-06T11:05:00.320Z,6.15
2023-03-06T11:07:30.400Z,12.05
2023-03-06T11:10:04.415Z,5.53
2023-03-06T11:12:35.405Z,6.38
2023-03-06T11:15:17.403Z,6.85
2023-03-06T11:18:25.154Z,6.07
2023-03-06T11:20:55.673Z,6.57
2023-03-06T11:23:35.992Z,6.38
2023-03-06T11:26:21.071Z,6.30
2023-03-06T11:28:54.265Z,6.05
2023-03-06T11:31:25.024Z,5.38
2023-03-06T11:33:56.039Z,7.32
2023-03-06T11:36:29.174Z,5.95
2023-03-06T11:38:58.313Z,5.38
2023-03-06T11:41:35.126Z,5.38
2023-03-06T11:44:15.263Z,4.00
2023-03-06T11:46:49.286Z,3.90
2023-03-06T11:49:25.141Z,6.28
2023-03-06T11:51:56.180Z,5.25
2023-03-06T11:54:25.771Z,6.95
2023-03-06T11:56:57.140Z,4.82
2023-03-06T12:00:00.716Z,5.93
2023-03-06T12:02:42.845Z,4.68
2023-03-06T12:05:33.770Z,6.07
2023-03-06T12:08:16.192Z,7.10
2023-03-06T12:10:51.789Z,7.03
2023-03-06T12:13:32.018Z,6.05
2023-03-06T12:16:27.231Z,6.60
2023-03-06T12:19:08.280Z,6.60
2023-03-06T12:21:47.691Z,5.78
2023-03-06T12:24:30.037Z,10.25
2023-03-06T12:27:14.138Z,5.05
2023-03-06T12:29:52.996Z,3.67
2023-03-06T12:32:32.814Z,3.08
2023-03-06T12:35:12.260Z,3.30
2023-03-06T12:37:51.802Z,3.20
2023-03-06T12:40:39.161Z,3.92
2023-03-06T12:43:30.638Z,2.58
2023-03-06T12:46:02.553Z,3.28
2023-03-06T12:48:35.594Z,3.25
2023-03-06T12:51:06.087Z,3.30
2023-03-06T12:53:36.552Z,2.80
2023-03-06T12:56:05.242Z,3.00
2023-03-06T12:58:48.918Z,2.78
2023-03-06T13:01:32.472Z,2.20
2023-03-06T13:04:19.797Z,2.40
2023-03-06T13:07:04.068Z,2.83
2023-03-06T13:09:42.097Z,5.22
2023-03-06T13:12:21.790Z,2.70
2023-03-06T13:14:57.961Z,2.50
2023-03-06T13:17:28.277Z,2.40
2023-03-06T13:20:29.376Z,2.20
2023-03-06T13:22:57.680Z,3.45
2023-03-06T13:25:39.055Z,2.67
2023-03-06T13:28:24.085Z,4.32
2023-03-06T13:30:53.465Z,4.32
2023-03-06T13:33:53.743Z,2.60
2023-03-06T13:36:27.277Z,1.50
2023-03-06T13:38:57.766Z,2.08
2023-03-06T13:41:37.573Z,2.65
2023-03-06T13:44:45.887Z,1.92
2023-03-06T13:48:10.677Z,4.50
2023-03-06T13:50:36.354Z,2.60
2023-03-06T13:53:20.355Z,2.00
2023-03-06T13:56:00.242Z,1.65
2023-03-06T13:58:54.348Z,2.13
2023-03-06T14:01:39.399Z,1.60
2023-03-06T14:04:34.236Z,2.17
2023-03-06T14:07:19.888Z,1.50
2023-03-06T14:09:49.023Z,2.05
2023-03-06T14:12:23.625Z,2.22
2023-03-06T14:14:55.964Z,1.65
2023-03-06T14:17:30.088Z,2.25
2023-03-06T14:20:05.737Z,1.75
2023-03-06T14:22:33.534Z,1.95
2023-03-06T14:25:04.892Z,2.22
2023-03-06T14:27:40.731Z,1.30
2023-03-06T14:30:10.470Z,1.75
2023-03-06T14:32:39.455Z,2.00
2023-03-06T14:35:21.654Z,2.08
2023-03-06T14:37:53.045Z,1.63
2023-03-06T14:40:25.455Z,2.92
2023-03-06T14:43:11.754Z,1.30
2023-03-06T14:45:50.743Z,3.40
2023-03-06T14:48:18.562Z,1.80
2023-03-06T14:50:52.464Z,2.17
2023-03-06T14:53:23.751Z,1.42
2023-03-06T14:55:54.141Z,1.30
2023-03-06T14:58:29.206Z,1.60
2023-03-06T15:01:01.319Z,1.50
2023-03-06T15:03:36.866Z,1.45
2023-03-06T15:06:07.561Z,1.25
2023-03-06T15:08:39.140Z,2.47
2023-03-06T15:11:08.373Z,2.65
2023-03-06T15:13:36.668Z,1.30
2023-03-06T15:16:08.576Z,1.40
2023-03-06T15:18:39.107Z,1.27
2023-03-06T15:21:11.208Z,3.22
2023-03-06T15:23:40.828Z,3.83
2023-03-06T15:26:26.991Z,2.50
2023-03-06T15:29:06.992Z,1.98
2023-03-06T15:31:38.356Z,1.92
2023-03-06T15:34:23.460Z,1.85
2023-03-06T15:36:57.578Z,3.10
2023-03-06T15:39:30.754Z,3.33
2023-03-06T15:41:59.278Z,2.80
2023-03-06T15:44:27.871Z,2.72
2023-03-06T15:47:06.625Z,2.15
2023-03-06T15:49:38.010Z,2.78
2023-03-06T15:52:07.504Z,4.30
2023-03-06T15:54:35.801Z,2.42
2023-03-06T15:57:05.211Z,3.30
2023-03-06T15:59:38.738Z,3.80
2023-03-06T16:02:16.275Z,2.42
2023-03-06T16:04:44.280Z,2.55
2023-03-06T16:07:13.404Z,3.67
2023-03-06T16:09:41.464Z,3.35
2023-03-06T16:12:16.107Z,3.92
2023-03-06T16:14:43.868Z,2.92
2023-03-06T16:17:12.703Z,4.88
2023-03-06T16:19:40.444Z,3.22
2023-03-06T16:22:08.435Z,4.30
2023-03-06T16:24:37.713Z,3.20
2023-03-06T16:27:06.828Z,2.55
2023-03-06T16:29:35.100Z,4.18
2023-03-06T16:32:03.235Z,2.60
2023-03-06T16:34:31.138Z,3.60
2023-03-06T16:36:58.885Z,4.72
2023-03-06T16:39:26.626Z,5.50
2023-03-06T16:41:56.496Z,6.00
2023-03-06T16:44:24.224Z,3.90
2023-03-06T16:46:52.090Z,4.55
2023-03-06T16:49:21.517Z,4.93
2023-03-06T16:51:50.143Z,6.80
2023-03-06T16:54:18.130Z,4.07
2023-03-06T16:56:46.191Z,5.70
2023-03-06T16:59:15.252Z,3.67
2023-03-06T17:01:43.606Z,3.85
2023-03-06T17:04:11.480Z,5.45
2023-03-06T17:06:39.657Z,6.57
2023-03-06T17:09:07.451Z,6.05
2023-03-06T17:11:38.381Z,5.88
2023-03-06T17:14:06.858Z,4.93
2023-03-06T17:16:39.118Z,5.88
2023-03-06T17:19:06.929Z,4.53
2023-03-06T17:21:35.422Z,7.28
2023-03-06T17:24:03.746Z,4.95
2023-03-06T17:26:31.827Z,3.88
2023-03-06T17:28:59.659Z,7.75
2023-03-06T17:31:28.837Z,6.03
2023-03-06T17:34:00.599Z,6.15
2023-03-06T17:36:29.319Z,4.90
2023-03-06T17:38:57.459Z,4.93
2023-03-06T17:41:25.995Z,4.40
2023-03-06T17:43:55.700Z,7.72
2023-03-06T17:46:23.558Z,6.55
2023-03-06T17:48:51.881Z,8.00
2023-03-06T17:51:20.984Z,7.75
2023-03-06T17:53:49.186Z,7.38
2023-03-06T17:56:16.947Z,7.05
2023-03-06T17:58:44.722Z,10.70
2023-03-06T18:01:14.122Z,11.82
2023-03-06T18:03:45.058Z,10.90
2023-03-06T18:06:13.351Z,8.07
2023-03-06T18:08:42.591Z,9.63
2023-03-06T18:11:11.934Z,9.27
2023-03-06T18:13:41.879Z,8.32
2023-03-06T18:16:11.465Z,14.18
2023-03-06T18:18:39.586Z,16.45
2023-03-06T18:21:09.144Z,15.15
2023-03-06T18:23:37.311Z,18.50
2023-03-06T18:26:11.850Z,16.10
2023-03-06T18:28:42.399Z,16.13
2023-03-06T18:31:15.989Z,11.38
2023-03-06T18:33:44.064Z,13.65
2023-03-06T18:36:11.897Z,13.38
2023-03-06T18:38:41.293Z,10.23
2023-03-06T18:41:11.156Z,14.93
2023-03-06T18:43:39.333Z,11.52
2023-03-06T18:46:07.795Z,12.13
2023-03-06T18:48:36.090Z,11.82
2023-03-06T18:51:08.735Z,9.35
2023-03-06T18:53:37.420Z,14.07
2023-03-06T18:56:05.438Z,9.73
2023-03-06T18:58:34.576Z,10.93
2023-03-06T19:01:07.295Z,9.10
2023-03-06T19:03:35.138Z,10.52
2023-03-06T19:06:06.284Z,13.65
2023-03-06T19:08:34.867Z,11.27
2023-03-06T19:11:03.664Z,11.93
2023-03-06T19:13:31.930Z,10.82
2023-03-06T19:16:01.324Z,11.30
2023-03-06T19:18:30.149Z,13.50
2023-03-06T19:21:08.533Z,16.65
2023-03-06T19:23:36.435Z,15.57
2023-03-06T19:26:04.737Z,18.20
2023-03-06T19:28:33.563Z,17.77
2023-03-06T19:31:08.809Z,19.75
2023-03-06T19:33:37.787Z,17.92
2023-03-06T19:36:06.191Z,18.23
2023-03-06T19:38:34.181Z,20.45
2023-03-06T19:41:01.914Z,20.23
2023-03-06T19:43:30.094Z,22.75
2023-03-06T19:45:58.527Z,22.52
2023-03-06T19:48:27.693Z,21.95
2023-03-06T19:50:55.464Z,24.02
2023-03-06T19:53:23.523Z,22.77
2023-03-06T19:55:51.243Z,21.85
2023-03-06T19:58:18.942Z,28.83
2023-03-06T20:00:46.769Z,22.33
2023-03-06T20:03:14.540Z,26.40
2023-03-06T20:05:48.060Z,26.42
2023-03-06T20:08:15.795Z,24.52
2023-03-06T20:10:43.515Z,26.88
2023-03-06T20:13:11.249Z,24.15
2023-03-06T20:15:39.024Z,23.42
2023-03-06T20:18:06.867Z,26.88
2023-03-06T20:20:34.658Z,28.58
2023-03-06T20:23:04.568Z,24.20
2023-03-06T20:25:32.393Z,27.92
2023-03-06T20:28:00.243Z,27.40
2023-03-06T20:30:37.566Z,30.25
2023-03-06T20:33:06.361Z,28.55
2023-03-06T20:35:34.071Z,31.17
2023-03-06T20:38:03.211Z,26.85
2023-03-06T20:40:31.025Z,30.77
2023-03-06T20:42:58.777Z,29.52
2023-03-06T20:45:26.488Z,26.83
2023-03-06T20:47:56.205Z,26.52
2023-03-06T20:50:25.510Z,27.55
2023-03-06T20:52:55.065Z,28.33
2023-03-06T20:55:24.265Z,25.80
2023-03-06T20:57:52.467Z,29.63
2023-03-06T21:00:21.218Z,26.38
2023-03-06T21:02:49.021Z,29.80
2023-03-06T21:05:17.012Z,34.05
2023-03-06T21:07:44.749Z,28.80
2023-03-06T21:10:14.471Z,30.92
2023-03-06T21:12:43.560Z,35.10
2023-03-06T21:15:12.937Z,33.42
2023-03-06T21:17:40.660Z,29.50
2023-03-06T21:20:10.516Z,35.25
2023-03-06T21:22:38.275Z,31.23
2023-03-06T21:25:06.712Z,30.23
2023-03-06T21:27:34.573Z,34.15
2023-03-06T21:30:03.911Z,36.33
2023-03-06T21:32:32.442Z,32.15
2023-03-06T21:35:00.231Z,30.15
2023-03-06T21:37:28.092Z,34.25
2023-03-06T21:39:59.715Z,33.55
2023-03-06T21:42:27.536Z,36.00
2023-03-06T21:44:55.251Z,33.97
2023-03-06T21:47:24.346Z,34.08
2023-03-06T21:49:52.117Z,33.03
2023-03-06T21:52:19.871Z,32.65
2023-03-06T21:54:49.654Z,32.58
2023-03-06T21:57:17.374Z,33.35
2023-03-06T21:59:45.080Z,34.85
2023-03-06T22:02:12.860Z,36.97
2023-03-06T22:04:42.001Z,41.53
2023-03-06T22:07:09.688Z,33.33
2023-03-06T22:09:37.469Z,34.70
2023-03-06T22:12:05.816Z,34.50
2023-03-06T22:14:33.659Z,35.63
2023-03-06T22:17:01.423Z,32.47
2023-03-06T22:19:29.146Z,31.15
2023-03-06T22:21:58.321Z,31.23
2023-03-06T22:24:26.161Z,32.28
2023-03-06T22:26:53.939Z,31.67
2023-03-06T22:29:21.703Z,33.03
2023-03-06T22:31:49.460Z,32.85
2023-03-06T22:34:17.479Z,28.50
2023-03-06T22:36:45.197Z,24.80
2023-03-06T22:39:14.900Z,29.13
2023-03-06T22:41:42.861Z,24.05
2023-03-06T22:44:15.286Z,27.55
2023-03-06T22:46:43.054Z,28.48
2023-03-06T22:49:12.931Z,30.42
2023-03-06T22:51:41.158Z,23.95
2023-03-06T22:54:09.217Z,23.08
2023-03-06T22:56:38.579Z,24.38
2023-03-06T22:59:06.562Z,25.15
2023-03-06T23:01:35.322Z,26.30
2023-03-06T23:04:04.878Z,24.45
2023-03-06T23:06:34.080Z,25.50
2023-03-06T23:09:05.824Z,21.52
2023-03-06T23:11:54.015Z,23.10
2023-03-06T23:14:40.995Z,23.95
2023-03-06T23:17:27.830Z,26.30
2023-03-06T23:20:15.238Z,24.27
2023-03-06T23:23:02.042Z,26.20
2023-03-06T23:25:42.109Z,22.52
2023-03-06T23:28:11.488Z,26.80
2023-03-06T23:30:39.722Z,19.58
2023-03-06T23:33:07.989Z,23.80
2023-03-06T23:35:36.495Z,25.15
2023-03-06T23:38:04.360Z,22.77
2023-03-06T23:40:34.813Z,24.30
2023-03-06T23:43:03.797Z,26.05
2023-03-06T23:45:32.990Z,26.10
2023-03-06T23:48:00.766Z,21.33
2023-03-06T23:50:28.539Z,24.02
2023-03-06T23:52:56.646Z,24.77
2023-03-06T23:55:24.435Z,21.90
2023-03-06T23:57:52.106Z,23.40
